Time;durP1;ratioP1;P1;durP2;ratioP2;P2;SDS_P1;SDS_P2;PMS_P1;PMS_P2;Temp;Humidity;BMP_temperature;BMP_pressure;BME280_temperature;BME280_humidity;BME280_pressure;Samples;Min_cycle;Max_cycle;Signal;HPM_P1;HPM_P2
2023/12/18 00:01:43;;;;;;;37.08;16.38;;;;;;;;;;5029065;28;20045;-70
2023/12/18 00:04:11;;;;;;;32.58;16.88;;;;;;;;;;5028279;28;20038;-70
2023/12/18 00:06:37;;;;;;;35.50;16.05;;;;;;;;;;5030499;28;20046;-70
2023/12/18 00:09:05;;;;;;;32.50;15.75;;;;;;;;;;5030409;28;20101;-70
2023/12/18 00:11:31;;;;;;;38.78;17.00;;;;;;;;;;5012396;28;20046;-70
2023/12/18 00:14:02;;;;;;;37.20;16.50;;;;;;;;;;5028825;28;20064;-70
2023/12/18 00:16:34;;;;;;;32.83;17.63;;;;;;;;;;5030109;28;20038;-70
2023/12/18 00:19:00;;;;;;;37.72;16.70;;;;;;;;;;5029087;28;20049;-70
2023/12/18 00:21:33;;;;;;;29.88;15.52;;;;;;;;;;5026968;28;20069;-70
2023/12/18 00:23:59;;;;;;;38.80;16.02;;;;;;;;;;5027800;28;20401;-70
2023/12/18 00:26:26;;;;;;;42.80;17.38;;;;;;;;;;5013781;28;20046;-70
2023/12/18 00:28:52;;;;;;;31.67;16.33;;;;;;;;;;5007926;28;20497;-70
2023/12/18 00:31:20;;;;;;;34.85;16.35;;;;;;;;;;5008237;28;20046;-70
2023/12/18 00:33:48;;;;;;;35.13;16.27;;;;;;;;;;5009724;28;20074;-70
2023/12/18 00:36:14;;;;;;;32.35;16.40;;;;;;;;;;5009166;28;20081;-70
2023/12/18 00:38:45;;;;;;;31.77;15.32;;;;;;;;;;5008498;28;20042;-70
2023/12/18 00:41:15;;;;;;;33.60;16.92;;;;;;;;;;5009065;28;20073;-70
2023/12/18 00:43:42;;;;;;;31.92;15.50;;;;;;;;;;5009373;28;20373;-70
2023/12/18 00:46:10;;;;;;;34.90;16.52;;;;;;;;;;5008844;28;20112;-70
2023/12/18 00:48:39;;;;;;;37.08;16.02;;;;;;;;;;5008736;28;20030;-70
2023/12/18 00:51:05;;;;;;;36.30;16.40;;;;;;;;;;4992825;28;20060;-70
2023/12/18 00:53:39;;;;;;;30.77;16.33;;;;;;;;;;5008003;28;20053;-70
2023/12/18 00:56:06;;;;;;;30.30;14.93;;;;;;;;;;4992269;28;20038;-70
2023/12/18 00:58:35;;;;;;;31.17;16.38;;;;;;;;;;5008967;28;20038;-71
2023/12/18 01:01:07;;;;;;;32.35;15.25;;;;;;;;;;4993082;28;20508;-70
2023/12/18 01:03:33;;;;;;;33.00;17.13;;;;;;;;;;5008989;28;20057;-70
2023/12/18 01:06:00;;;;;;;38.22;16.92;;;;;;;;;;5008907;28;20088;-70
2023/12/18 01:08:26;;;;;;;37.67;16.33;;;;;;;;;;4992104;28;20095;-70
2023/12/18 01:10:53;;;;;;;37.05;15.82;;;;;;;;;;5008158;28;20034;-70
2023/12/18 01:13:24;;;;;;;32.58;15.63;;;;;;;;;;4991657;28;20039;-70
2023/12/18 01:15:52;;;;;;;34.17;15.40;;;;;;;;;;5009138;28;20034;-70
2023/12/18 01:18:20;;;;;;;33.28;15.23;;;;;;;;;;5012602;28;20053;-70
2023/12/18 01:20:46;;;;;;;30.90;15.48;;;;;;;;;;4996759;28;20049;-70
2023/12/18 01:23:13;;;;;;;29.83;15.57;;;;;;;;;;5014322;28;20044;-70
2023/12/18 01:25:39;;;;;;;31.73;15.05;;;;;;;;;;4996939;28;20053;-70
2023/12/18 01:28:05;;;;;;;41.08;14.68;;;;;;;;;;5013415;28;20089;-70
2023/12/18 01:30:33;;;;;;;35.20;15.23;;;;;;;;;;5013007;28;20074;-70
2023/12/18 01:33:03;;;;;;;36.67;15.85;;;;;;;;;;5012189;28;20050;-70
2023/12/18 01:35:29;;;;;;;34.85;14.48;;;;;;;;;;4996043;28;20054;-70
2023/12/18 01:37:55;;;;;;;38.03;15.57;;;;;;;;;;5011654;28;20107;-70
2023/12/18 01:40:22;;;;;;;31.00;14.60;;;;;;;;;;5012073;28;20050;-70
2023/12/18 01:42:49;;;;;;;39.25;14.77;;;;;;;;;;4995869;28;20040;-70
2023/12/18 01:45:15;;;;;;;31.77;15.25;;;;;;;;;;5011149;28;20049;-70
2023/12/18 01:47:44;;;;;;;35.15;15.18;;;;;;;;;;4992785;28;20046;-70
2023/12/18 01:50:11;;;;;;;31.00;14.13;;;;;;;;;;5010044;28;20051;-70
2023/12/18 01:52:39;;;;;;;35.33;15.30;;;;;;;;;;5011423;28;20065;-70
2023/12/18 01:55:05;;;;;;;33.53;14.23;;;;;;;;;;4994386;28;20042;-70
2023/12/18 01:57:32;;;;;;;29.48;14.80;;;;;;;;;;5012091;28;20090;-70
2023/12/18 02:00:00;;;;;;;38.33;14.40;;;;;;;;;;5012603;28;20042;-70
2023/12/18 02:02:34;;;;;;;29.70;14.15;;;;;;;;;;5010818;28;20052;-70
2023/12/18 02:05:00;;;;;;;34.38;16.10;;;;;;;;;;5012002;28;20052;-70
2023/12/18 02:07:26;;;;;;;34.38;15.55;;;;;;;;;;5011495;28;20046;-70
2023/12/18 02:09:52;;;;;;;32.90;14.73;;;;;;;;;;5012901;28;20052;-70
2023/12/18 02:12:18;;;;;;;33.22;16.02;;;;;;;;;;5011443;28;20081;-70
2023/12/18 02:14:44;;;;;;;36.20;16.33;;;;;;;;;;5010018;28;20034;-70
2023/12/18 02:17:14;;;;;;;33.17;14.43;;;;;;;;;;4994668;28;20098;-70
2023/12/18 02:19:40;;;;;;;34.35;16.05;;;;;;;;;;5025183;28;20045;-70
2023/12/18 02:22:07;;;;;;;33.55;15.40;;;;;;;;;;5029899;28;20080;-70
2023/12/18 02:24:39;;;;;;;34.00;15.77;;;;;;;;;;5030973;28;20056;-70
2023/12/18 02:27:12;;;;;;;34.80;15.30;;;;;;;;;;5012931;28;20057;-70
2023/12/18 02:29:38;;;;;;;35.10;15.73;;;;;;;;;;5013778;28;20113;-70
2023/12/18 02:32:07;;;;;;;33.17;15.63;;;;;;;;;;5029558;28;20504;-70
2023/12/18 02:34:37;;;;;;;32.42;15.77;;;;;;;;;;5029616;28;20088;-70
2023/12/18 02:37:22;;;;;;;32.35;15.43;;;;;;;;;;5028621;28;20040;-70
2023/12/18 02:39:52;;;;;;;36.20;15.88;;;;;;;;;;5012216;28;20045;-70
2023/12/18 02:42:22;;;;;;;33.67;16.10;;;;;;;;;;5013120;28;20046;-70
2023/12/18 02:44:50;;;;;;;35.30;15.88;;;;;;;;;;5029256;28;20037;-70
2023/12/18 02:47:20;;;;;;;29.70;14.88;;;;;;;;;;5028807;28;20042;-70
2023/12/18 02:49:46;;;;;;;33.97;15.23;;;;;;;;;;5028312;28;20041;-70
2023/12/18 02:52:14;;;;;;;37.25;15.55;;;;;;;;;;5029864;28;20042;-70
2023/12/18 02:54:42;;;;;;;26.70;14.55;;;;;;;;;;5030633;28;20392;-70
2023/12/18 02:57:09;;;;;;;30.50;15.20;;;;;;;;;;5013267;28;20101;-70
2023/12/18 02:59:35;;;;;;;28.05;15.88;;;;;;;;;;5030750;28;20049;-70
2023/12/18 03:02:01;;;;;;;36.15;15.13;;;;;;;;;;5028940;28;20104;-70
2023/12/18 03:04:29;;;;;;;37.05;16.30;;;;;;;;;;5030052;28;20480;-70
2023/12/18 03:06:55;;;;;;;32.45;15.00;;;;;;;;;;5012450;28;20042;-70
2023/12/18 03:09:24;;;;;;;35.72;15.82;;;;;;;;;;5030000;28;20484;-70
2023/12/18 03:11:51;;;;;;;32.92;15.25;;;;;;;;;;5028477;28;20041;-70
2023/12/18 03:14:17;;;;;;;33.33;15.30;;;;;;;;;;5012387;28;20069;-70
2023/12/18 03:16:43;;;;;;;33.17;15.63;;;;;;;;;;5031240;28;20037;-70
2023/12/18 03:19:10;;;;;;;36.80;15.75;;;;;;;;;;5029902;28;20041;-70
2023/12/18 03:21:37;;;;;;;44.97;15.55;;;;;;;;;;5031259;28;20034;-70
2023/12/18 03:24:06;;;;;;;29.23;14.48;;;;;;;;;;5028695;28;20048;-70
2023/12/18 03:26:33;;;;;;;29.98;14.45;;;;;;;;;;5015586;28;20042;-70
2023/12/18 03:28:59;;;;;;;30.08;14.57;;;;;;;;;;5007398;28;20046;-70
2023/12/18 03:31:26;;;;;;;27.02;14.98;;;;;;;;;;5010546;28;20049;-70
2023/12/18 03:33:53;;;;;;;29.08;15.48;;;;;;;;;;4993031;28;20034;-70
2023/12/18 03:36:19;;;;;;;27.85;14.50;;;;;;;;;;5008204;28;20034;-70
2023/12/18 03:38:45;;;;;;;34.03;15.43;;;;;;;;;;4991169;28;20042;-70
2023/12/18 03:41:12;;;;;;;40.13;15.48;;;;;;;;;;5008461;28;20081;-70
2023/12/18 03:43:38;;;;;;;32.80;15.48;;;;;;;;;;5008319;28;20030;-70
2023/12/18 03:46:05;;;;;;;32.70;15.02;;;;;;;;;;5007140;28;20056;-70
2023/12/18 03:48:40;;;;;;;41.88;15.82;;;;;;;;;;5007689;28;20050;-70
2023/12/18 03:51:07;;;;;;;34.95;15.63;;;;;;;;;;5007337;28;20042;-70
2023/12/18 03:53:33;;;;;;;31.83;15.05;;;;;;;;;;5008070;28;20043;-70
2023/12/18 03:56:02;;;;;;;34.53;14.95;;;;;;;;;;5010096;28;20061;-70
2023/12/18 03:58:34;;;;;;;34.78;15.25;;;;;;;;;;4990339;28;20046;-70
2023/12/18 04:01:04;;;;;;;31.67;14.60;;;;;;;;;;4991265;28;20044;-70
2023/12/18 04:03:30;;;;;;;31.38;14.70;;;;;;;;;;4991296;28;20053;-70
2023/12/18 04:05:56;;;;;;;29.98;15.02;;;;;;;;;;5008840;28;20110;-70
2023/12/18 04:08:29;;;;;;;28.30;15.15;;;;;;;;;;4992149;28;20057;-70
2023/12/18 04:11:00;;;;;;;29.58;14.20;;;;;;;;;;5008805;28;20508;-70
2023/12/18 04:13:28;;;;;;;34.17;14.77;;;;;;;;;;5008906;28;20042;-70
2023/12/18 04:15:54;;;;;;;31.38;14.13;;;;;;;;;;5009299;28;20054;-70
2023/12/18 04:18:20;;;;;;;32.10;14.23;;;;;;;;;;4992298;28;20061;-70
2023/12/18 04:20:48;;;;;;;33.30;14.25;;;;;;;;;;4992503;28;20049;-70
2023/12/18 04:23:17;;;;;;;25.65;13.00;;;;;;;;;;5008891;28;20396;-70
2023/12/18 04:25:46;;;;;;;34.20;14.48;;;;;;;;;;4991418;28;20269;-70
2023/12/18 04:28:13;;;;;;;33.55;14.57;;;;;;;;;;5008011;28;20038;-70
2023/12/18 04:30:41;;;;;;;27.30;13.20;;;;;;;;;;4992841;28;20069;-70
2023/12/18 04:33:09;;;;;;;34.15;14.52;;;;;;;;;;5009284;28;20052;-70
2023/12/18 04:35:39;;;;;;;28.27;13.73;;;;;;;;;;5010697;28;20045;-70
2023/12/18 04:38:05;;;;;;;24.23;13.85;;;;;;;;;;5008348;28;20077;-70
2023/12/18 04:40:42;;;;;;;30.08;13.50;;;;;;;;;;4991635;28;20065;-70
2023/12/18 04:43:09;;;;;;;34.22;14.00;;;;;;;;;;5008132;28;20042;-70
2023/12/18 04:45:39;;;;;;;34.67;13.38;;;;;;;;;;5008413;28;20114;-71
2023/12/18 04:48:06;;;;;;;27.70;13.57;;;;;;;;;;5007796;28;20065;-70
2023/12/18 04:50:34;;;;;;;32.58;13.70;;;;;;;;;;5008817;28;20533;-70
2023/12/18 04:53:06;;;;;;;27.52;13.75;;;;;;;;;;5009401;28;20040;-70
2023/12/18 04:55:32;;;;;;;27.63;12.80;;;;;;;;;;4992332;28;20132;-70
2023/12/18 04:58:00;;;;;;;26.77;12.90;;;;;;;;;;4991715;28;20034;-70
2023/12/18 05:00:30;;;;;;;28.65;14.07;;;;;;;;;;5008753;28;20035;-70
2023/12/18 05:02:56;;;;;;;30.92;13.95;;;;;;;;;;5008156;28;20122;-70
2023/12/18 05:05:26;;;;;;;27.35;13.50;;;;;;;;;;5009011;28;20050;-70
2023/12/18 05:07:52;;;;;;;29.20;13.27;;;;;;;;;;5009875;28;20042;-70
2023/12/18 05:10:18;;;;;;;27.52;13.48;;;;;;;;;;4992511;28;20109;-70
2023/12/18 05:12:44;;;;;;;24.25;13.60;;;;;;;;;;5008245;28;20073;-70
2023/12/18 05:15:15;;;;;;;26.65;12.25;;;;;;;;;;5009421;28;20042;-70
2023/12/18 05:17:42;;;;;;;34.33;12.55;;;;;;;;;;4992491;28;20077;-70
2023/12/18 05:20:14;;;;;;;25.58;12.88;;;;;;;;;;5027859;28;20042;-71
2023/12/18 05:22:44;;;;;;;33.67;13.40;;;;;;;;;;5027400;28;20068;-71
2023/12/18 05:25:15;;;;;;;29.02;12.88;;;;;;;;;;5010922;28;20145;-71
2023/12/18 05:27:41;;;;;;;29.33;13.02;;;;;;;;;;5026727;28;20094;-71
2023/12/18 05:30:11;;;;;;;31.58;12.95;;;;;;;;;;5026196;28;20081;-71
2023/12/18 05:32:38;;;;;;;30.17;13.75;;;;;;;;;;5028827;28;20085;-71
2023/12/18 05:35:09;;;;;;;28.83;12.77;;;;;;;;;;5027393;28;20384;-71
2023/12/18 05:37:40;;;;;;;25.48;12.73;;;;;;;;;;5026008;28;20523;-71
2023/12/18 05:40:15;;;;;;;31.50;13.18;;;;;;;;;;5028526;28;20488;-71
2023/12/18 05:42:42;;;;;;;28.52;12.50;;;;;;;;;;5011242;28;20101;-71
2023/12/18 05:45:08;;;;;;;33.15;13.50;;;;;;;;;;5027777;28;20109;-71
2023/12/18 05:47:35;;;;;;;26.88;13.60;;;;;;;;;;5028312;28;20049;-71
2023/12/18 05:50:01;;;;;;;33.17;12.93;;;;;;;;;;5029790;28;20121;-71
2023/12/18 05:52:28;;;;;;;26.85;13.68;;;;;;;;;;5027566;28;20073;-71
2023/12/18 05:55:03;;;;;;;31.13;13.20;;;;;;;;;;5027490;28;20058;-71
2023/12/18 05:57:29;;;;;;;29.05;13.27;;;;;;;;;;5027890;28;20106;-71
2023/12/18 05:59:55;;;;;;;26.75;14.05;;;;;;;;;;5027590;28;20048;-71
2023/12/18 06:02:21;;;;;;;29.45;13.43;;;;;;;;;;5027669;28;20077;-71
2023/12/18 06:04:47;;;;;;;30.80;13.65;;;;;;;;;;5030102;28;20046;-71
2023/12/18 06:07:13;;;;;;;31.33;14.10;;;;;;;;;;5029252;28;20045;-71
2023/12/18 06:09:41;;;;;;;29.60;12.68;;;;;;;;;;5030896;28;20107;-71
2023/12/18 06:12:08;;;;;;;27.90;12.38;;;;;;;;;;5030251;28;20488;-71
2023/12/18 06:14:34;;;;;;;26.08;12.95;;;;;;;;;;5030417;28;20083;-71
2023/12/18 06:17:00;;;;;;;29.17;13.57;;;;;;;;;;5014128;28;20077;-71
2023/12/18 06:19:26;;;;;;;26.98;13.50;;;;;;;;;;5031532;28;20446;-71
2023/12/18 06:21:52;;;;;;;29.60;12.70;;;;;;;;;;5029726;28;20049;-71
2023/12/18 06:24:23;;;;;;;33.05;14.20;;;;;;;;;;5011963;28;20060;-71
2023/12/18 06:26:49;;;;;;;29.60;12.63;;;;;;;;;;5029792;28;20052;-71
2023/12/18 06:29:15;;;;;;;28.13;13.77;;;;;;;;;;5027865;28;20054;-71
2023/12/18 06:31:47;;;;;;;30.15;14.52;;;;;;;;;;5031162;28;20436;-71
2023/12/18 06:34:13;;;;;;;28.65;14.10;;;;;;;;;;5012942;28;20038;-71
2023/12/18 06:36:41;;;;;;;27.88;14.00;;;;;;;;;;5011509;28;20046;-71
2023/12/18 06:39:11;;;;;;;27.48;13.90;;;;;;;;;;5012082;28;20048;-71
2023/12/18 06:41:37;;;;;;;29.25;14.90;;;;;;;;;;5029228;28;20064;-71
2023/12/18 06:44:04;;;;;;;29.25;14.25;;;;;;;;;;5029232;28;20186;-71
2023/12/18 06:46:31;;;;;;;35.00;14.30;;;;;;;;;;5031322;28;20053;-71
2023/12/18 06:48:58;;;;;;;30.70;14.38;;;;;;;;;;5013067;28;20419;-71
2023/12/18 06:51:26;;;;;;;33.75;15.38;;;;;;;;;;5028898;28;20551;-72
2023/12/18 06:53:58;;;;;;;29.45;13.98;;;;;;;;;;5013551;28;20057;-71
2023/12/18 06:56:25;;;;;;;31.60;14.15;;;;;;;;;;5030827;28;20565;-71
2023/12/18 06:58:58;;;;;;;33.22;14.55;;;;;;;;;;5030759;28;20097;-71
2023/12/18 07:01:24;;;;;;;26.70;13.98;;;;;;;;;;5029707;28;20508;-71
2023/12/18 07:03:52;;;;;;;32.85;14.02;;;;;;;;;;5011961;28;20073;-71
2023/12/18 07:06:18;;;;;;;31.95;15.38;;;;;;;;;;5028179;28;20137;-71
2023/12/18 07:08:51;;;;;;;30.38;14.13;;;;;;;;;;5012550;28;20060;-71
2023/12/18 07:11:18;;;;;;;31.15;14.73;;;;;;;;;;5030298;28;20404;-71
2023/12/18 07:13:47;;;;;;;29.90;14.35;;;;;;;;;;5029251;28;20050;-71
2023/12/18 07:16:22;;;;;;;32.40;13.68;;;;;;;;;;5011432;28;20121;-71
2023/12/18 07:18:49;;;;;;;31.52;14.88;;;;;;;;;;5024084;28;20038;-71
2023/12/18 07:21:16;;;;;;;31.13;14.20;;;;;;;;;;5026605;28;20052;-71
2023/12/18 07:23:42;;;;;;;31.25;14.23;;;;;;;;;;5030859;28;20172;-71
2023/12/18 07:26:12;;;;;;;28.00;14.23;;;;;;;;;;5018241;28;20048;-71
2023/12/18 07:28:45;;;;;;;27.98;13.63;;;;;;;;;;5014607;28;20128;-71
2023/12/18 07:31:12;;;;;;;28.70;14.18;;;;;;;;;;5027246;28;20070;-71
2023/12/18 07:33:40;;;;;;;28.38;14.25;;;;;;;;;;5001293;28;20048;-71
2023/12/18 07:36:06;;;;;;;37.50;14.43;;;;;;;;;;5026108;28;20065;-71
2023/12/18 07:38:32;;;;;;;29.08;14.38;;;;;;;;;;4988339;28;20075;-66
2023/12/18 07:40:59;;;;;;;28.63;14.43;;;;;;;;;;5006899;28;20052;-67
2023/12/18 07:43:25;;;;;;;36.30;15.05;;;;;;;;;;5002737;28;20092;-67
2023/12/18 07:45:51;;;;;;;30.02;14.13;;;;;;;;;;5003426;28;20108;-67
2023/12/18 07:48:21;;;;;;;29.15;14.35;;;;;;;;;;4998492;28;20042;-67
2023/12/18 07:50:47;;;;;;;32.35;16.17;;;;;;;;;;4993598;28;20128;-66
2023/12/18 07:53:13;;;;;;;30.15;15.60;;;;;;;;;;5006160;28;20042;-67
2023/12/18 07:55:39;;;;;;;35.10;15.55;;;;;;;;;;4994773;28;20311;-66
2023/12/18 07:58:05;;;;;;;30.50;16.38;;;;;;;;;;5001273;28;20496;-67
2023/12/18 08:00:31;;;;;;;28.17;16.45;;;;;;;;;;4998540;28;20053;-65
2023/12/18 08:02:58;;;;;;;35.13;17.23;;;;;;;;;;4999086;28;20122;-66
2023/12/18 08:05:24;;;;;;;33.83;16.52;;;;;;;;;;5005342;28;20447;-67
2023/12/18 08:07:50;;;;;;;31.27;16.73;;;;;;;;;;5004775;28;20473;-67
2023/12/18 08:10:16;;;;;;;34.17;17.88;;;;;;;;;;4993816;28;20125;-66
2023/12/18 08:12:42;;;;;;;33.70;17.05;;;;;;;;;;5004113;28;20046;-65
2023/12/18 08:15:09;;;;;;;33.60;18.00;;;;;;;;;;4995269;28;20030;-66
2023/12/18 08:17:41;;;;;;;36.00;17.95;;;;;;;;;;4993374;28;20382;-68
2023/12/18 08:20:07;;;;;;;35.80;17.90;;;;;;;;;;4995382;28;20042;-66
2023/12/18 08:22:34;;;;;;;30.75;16.85;;;;;;;;;;4991952;28;20050;-65
2023/12/18 08:25:01;;;;;;;43.03;18.88;;;;;;;;;;4994887;28;20050;-65
2023/12/18 08:27:32;;;;;;;31.05;18.08;;;;;;;;;;4997396;28;20038;-65
2023/12/18 08:29:58;;;;;;;32.88;18.13;;;;;;;;;;4994061;28;20061;-65
2023/12/18 08:32:24;;;;;;;34.28;17.98;;;;;;;;;;4992948;28;20055;-65
2023/12/18 08:34:51;;;;;;;29.60;18.00;;;;;;;;;;5001819;28;20037;-64
2023/12/18 08:37:18;;;;;;;32.05;18.55;;;;;;;;;;4995317;28;20050;-66
2023/12/18 08:39:44;;;;;;;31.60;18.00;;;;;;;;;;4989779;28;20257;-68
2023/12/18 08:42:10;;;;;;;40.38;18.33;;;;;;;;;;4988221;28;20044;-65
2023/12/18 08:44:36;;;;;;;35.90;18.00;;;;;;;;;;4994963;28;20145;-66
2023/12/18 08:47:02;;;;;;;33.22;18.10;;;;;;;;;;4999241;28;20038;-66
2023/12/18 08:49:28;;;;;;;39.15;18.05;;;;;;;;;;4992967;28;20046;-67
2023/12/18 08:51:54;;;;;;;37.60;17.95;;;;;;;;;;5002533;28;20054;-65
2023/12/18 08:54:20;;;;;;;34.90;18.42;;;;;;;;;;5000872;28;20040;-66
2023/12/18 08:56:47;;;;;;;33.20;18.05;;;;;;;;;;5006110;28;20034;-67
2023/12/18 08:59:14;;;;;;;35.33;18.70;;;;;;;;;;4989919;28;20424;-65
2023/12/18 09:01:40;;;;;;;33.72;18.58;;;;;;;;;;4997747;28;20066;-66
2023/12/18 09:04:06;;;;;;;34.10;18.55;;;;;;;;;;4994280;28;20034;-65
2023/12/18 09:06:35;;;;;;;28.88;18.33;;;;;;;;;;5000125;28;20509;-65
2023/12/18 09:09:01;;;;;;;32.97;18.77;;;;;;;;;;5001007;28;20129;-67
2023/12/18 09:11:29;;;;;;;36.00;18.55;;;;;;;;;;4979990;28;20054;-67
2023/12/18 09:13:56;;;;;;;37.60;20.00;;;;;;;;;;4990958;28;20049;-66
2023/12/18 09:16:23;;;;;;;34.78;20.02;;;;;;;;;;5003268;28;20040;-66
2023/12/18 09:18:49;;;;;;;39.47;19.45;;;;;;;;;;4996962;28;20033;-66
2023/12/18 09:21:15;;;;;;;39.60;20.48;;;;;;;;;;5002574;28;20477;-67
2023/12/18 09:23:41;;;;;;;37.50;19.75;;;;;;;;;;5000004;28;20429;-68
2023/12/18 09:26:07;;;;;;;41.30;20.65;;;;;;;;;;4996283;28;20049;-67
2023/12/18 09:28:34;;;;;;;35.03;19.33;;;;;;;;;;4989672;28;20073;-67
2023/12/18 09:31:00;;;;;;;36.03;19.00;;;;;;;;;;4990117;28;20081;-68
2023/12/18 09:33:27;;;;;;;43.85;19.52;;;;;;;;;;4998775;28;20045;-67
2023/12/18 09:35:53;;;;;;;36.72;18.52;;;;;;;;;;4993909;28;20038;-66
2023/12/18 09:38:19;;;;;;;37.55;19.45;;;;;;;;;;4998241;28;20121;-66
2023/12/18 09:40:45;;;;;;;35.58;18.80;;;;;;;;;;4996062;28;20078;-66
2023/12/18 09:43:18;;;;;;;42.97;20.52;;;;;;;;;;5003138;28;20042;-67
2023/12/18 09:45:47;;;;;;;37.20;19.35;;;;;;;;;;4999880;28;20081;-69
2023/12/18 09:48:14;;;;;;;36.00;19.92;;;;;;;;;;4993676;28;20566;-69
2023/12/18 09:50:40;;;;;;;40.78;20.20;;;;;;;;;;4998447;28;20038;-69
2023/12/18 09:53:06;;;;;;;35.17;20.05;;;;;;;;;;4995257;28;20125;-69
2023/12/18 09:55:32;;;;;;;39.00;20.88;;;;;;;;;;4992931;28;20045;-69
2023/12/18 09:58:00;;;;;;;39.00;20.48;;;;;;;;;;4994741;28;20046;-67
2023/12/18 10:00:26;;;;;;;39.05;19.33;;;;;;;;;;4999336;28;20437;-67
2023/12/18 10:02:54;;;;;;;44.10;19.67;;;;;;;;;;4998849;28;20437;-66
2023/12/18 10:05:21;;;;;;;40.33;21.05;;;;;;;;;;4999172;28;20082;-66
2023/12/18 10:07:48;;;;;;;37.03;19.45;;;;;;;;;;5002616;28;20397;-67
2023/12/18 10:10:15;;;;;;;37.58;20.38;;;;;;;;;;5001560;28;20050;-67
2023/12/18 10:12:41;;;;;;;35.75;19.83;;;;;;;;;;4999880;28;20072;-68
2023/12/18 10:15:08;;;;;;;40.70;20.65;;;;;;;;;;4998132;28;20173;-67
2023/12/18 10:17:34;;;;;;;41.40;19.75;;;;;;;;;;5000860;28;20488;-66
2023/12/18 10:20:03;;;;;;;37.13;19.95;;;;;;;;;;5007299;28;20033;-67
2023/12/18 10:22:29;;;;;;;35.97;19.85;;;;;;;;;;4996153;28;20045;-66
2023/12/18 10:24:58;;;;;;;36.20;19.98;;;;;;;;;;5007687;28;20052;-66
2023/12/18 10:27:25;;;;;;;46.13;21.40;;;;;;;;;;5003542;28;20082;-68
2023/12/18 10:29:51;;;;;;;40.35;20.10;;;;;;;;;;4998638;28;20500;-66
2023/12/18 10:32:17;;;;;;;38.83;19.92;;;;;;;;;;5004302;28;20180;-65
2023/12/18 10:34:46;;;;;;;43.28;20.20;;;;;;;;;;4994305;28;20044;-66
2023/12/18 10:37:12;;;;;;;38.00;21.67;;;;;;;;;;5006405;28;20026;-66
2023/12/18 10:39:41;;;;;;;36.95;19.92;;;;;;;;;;4996502;28;20034;-66
2023/12/18 10:42:13;;;;;;;38.42;20.48;;;;;;;;;;4999497;28;20128;-66
2023/12/18 10:44:41;;;;;;;38.42;20.85;;;;;;;;;;5002101;28;20046;-69
2023/12/18 10:47:08;;;;;;;40.42;21.02;;;;;;;;;;4997838;28;20515;-67
2023/12/18 10:49:35;;;;;;;43.65;21.45;;;;;;;;;;4994425;28;20057;-68
2023/12/18 10:52:01;;;;;;;38.15;20.98;;;;;;;;;;5000516;28;20095;-67
2023/12/18 10:54:27;;;;;;;38.63;21.45;;;;;;;;;;5000139;28;20488;-66
2023/12/18 10:56:54;;;;;;;45.42;21.52;;;;;;;;;;4999548;28;20362;-67
2023/12/18 10:59:20;;;;;;;44.38;21.15;;;;;;;;;;5001363;28;20038;-66
2023/12/18 11:01:46;;;;;;;40.60;22.02;;;;;;;;;;5003135;28;20037;-67
2023/12/18 11:04:13;;;;;;;35.10;20.90;;;;;;;;;;4991682;28;20044;-66
2023/12/18 11:06:40;;;;;;;44.45;21.98;;;;;;;;;;4996618;28;20046;-66
2023/12/18 11:09:06;;;;;;;37.65;20.52;;;;;;;;;;4993506;28;20038;-68
2023/12/18 11:11:34;;;;;;;37.28;20.58;;;;;;;;;;4997347;28;20075;-67
2023/12/18 11:14:18;;;;;;;38.22;21.05;;;;;;;;;;4999790;28;20572;-66
2023/12/18 11:16:59;;;;;;;40.53;20.80;;;;;;;;;;5000769;28;20042;-67
2023/12/18 11:19:32;;;;;;;39.60;20.25;;;;;;;;;;4996127;28;20042;-66
2023/12/18 11:21:58;;;;;;;;;;;;;;;;;;5003759;28;20050;-66
2023/12/18 11:24:27;;;;;;;47.10;20.88;;;;;;;;;;5001469;28;19926;-67
2023/12/18 11:26:53;;;;;;;38.05;20.38;;;;;;;;;;4997622;28;20038;-66
2023/12/18 11:29:38;;;;;;;39.75;20.85;;;;;;;;;;5003327;28;20380;-66
2023/12/18 11:32:04;;;;;;;40.60;21.42;;;;;;;;;;5001717;28;20078;-68
2023/12/18 11:34:30;;;;;;;32.75;20.30;;;;;;;;;;4997199;28;20067;-68
2023/12/18 11:36:57;;;;;;;37.33;20.17;;;;;;;;;;4991369;28;20038;-66
2023/12/18 11:39:23;;;;;;;35.20;20.25;;;;;;;;;;4991475;28;20062;-66
2023/12/18 11:41:49;;;;;;;33.13;19.80;;;;;;;;;;5001375;28;20418;-68
2023/12/18 11:44:15;;;;;;;34.17;19.38;;;;;;;;;;5005376;28;20657;-68
2023/12/18 11:46:44;;;;;;;35.97;20.58;;;;;;;;;;4998266;28;20652;-67
2023/12/18 11:49:12;;;;;;;38.85;20.48;;;;;;;;;;4996647;28;20041;-66
2023/12/18 11:51:44;;;;;;;34.83;17.42;;;;;;;;;;4996777;28;20679;-66
2023/12/18 11:54:10;;;;;;;;;;;;;;;;;;4996988;28;20046;-66
2023/12/18 11:56:39;;;;;;;32.97;18.90;;;;;;;;;;4991385;28;19927;-66
2023/12/18 11:59:07;;;;;;;43.13;20.02;;;;;;;;;;4990922;28;20461;-66
2023/12/18 12:01:33;;;;;;;39.22;20.63;;;;;;;;;;4991282;28;20043;-66
2023/12/18 12:03:59;;;;;;;38.30;20.90;;;;;;;;;;5003316;28;20069;-66
2023/12/18 12:06:25;;;;;;;38.88;20.73;;;;;;;;;;5001846;28;20061;-66
2023/12/18 12:08:51;;;;;;;40.75;20.27;;;;;;;;;;5003489;28;20042;-66
2023/12/18 12:11:18;;;;;;;38.05;20.40;;;;;;;;;;4992524;28;20436;-66
2023/12/18 12:13:45;;;;;;;38.65;20.92;;;;;;;;;;5000550;28;20473;-66
2023/12/18 12:16:16;;;;;;;37.97;20.58;;;;;;;;;;4999102;28;20114;-65
2023/12/18 12:18:50;;;;;;;42.08;20.88;;;;;;;;;;4992703;28;20065;-66
2023/12/18 12:21:17;;;;;;;41.20;20.23;;;;;;;;;;4981408;28;20631;-67
2023/12/18 12:23:45;;;;;;;40.78;21.35;;;;;;;;;;4995203;28;20417;-66
2023/12/18 12:26:12;;;;;;;40.47;20.30;;;;;;;;;;4992457;28;20057;-65
2023/12/18 12:28:41;;;;;;;44.13;20.27;;;;;;;;;;4997952;28;20069;-67
2023/12/18 12:31:07;;;;;;;40.55;21.58;;;;;;;;;;4995896;28;20497;-66
2023/12/18 12:33:39;;;;;;;42.35;22.02;;;;;;;;;;5003410;28;20054;-66
2023/12/18 12:36:06;;;;;;;;;;;;;;;;;;5000061;28;20445;-67
2023/12/18 12:38:35;;;;;;;38.10;21.40;;;;;;;;;;4991976;28;19918;-66
2023/12/18 12:41:01;;;;;;;39.75;21.88;;;;;;;;;;4990392;28;20053;-66
2023/12/18 12:43:27;;;;;;;41.55;21.08;;;;;;;;;;4991029;28;20042;-65
2023/12/18 12:45:53;;;;;;;39.33;20.92;;;;;;;;;;4991692;28;20053;-65
2023/12/18 12:48:19;;;;;;;39.00;21.20;;;;;;;;;;4989178;28;20042;-65
2023/12/18 12:50:47;;;;;;;34.08;20.73;;;;;;;;;;4990730;28;20077;-66
2023/12/18 12:53:13;;;;;;;38.88;22.02;;;;;;;;;;4999396;28;20056;-65
2023/12/18 12:55:40;;;;;;;41.65;21.27;;;;;;;;;;4991762;28;20038;-65
2023/12/18 12:58:07;;;;;;;35.53;20.67;;;;;;;;;;4993704;28;20069;-66
2023/12/18 13:00:33;;;;;;;36.53;21.85;;;;;;;;;;4993340;28;20048;-66
2023/12/18 13:02:59;;;;;;;40.45;21.48;;;;;;;;;;4990276;28;20095;-65
2023/12/18 13:05:26;;;;;;;36.53;20.55;;;;;;;;;;4996130;28;20065;-66
2023/12/18 13:07:55;;;;;;;39.08;21.73;;;;;;;;;;4990427;28;20524;-65
2023/12/18 13:10:21;;;;;;;42.78;20.63;;;;;;;;;;4990194;28;20081;-65
2023/12/18 13:12:48;;;;;;;37.15;20.55;;;;;;;;;;4992133;28;20473;-66
2023/12/18 13:15:14;;;;;;;35.30;20.08;;;;;;;;;;4994358;28;20546;-67
2023/12/18 13:17:40;;;;;;;36.92;20.50;;;;;;;;;;4998911;28;20045;-66
2023/12/18 13:20:07;;;;;;;37.70;20.38;;;;;;;;;;5000686;28;20040;-66
2023/12/18 13:22:33;;;;;;;35.75;20.45;;;;;;;;;;4994798;28;20600;-67
2023/12/18 13:24:59;;;;;;;34.50;20.17;;;;;;;;;;5002976;28;20045;-68
2023/12/18 13:27:26;;;;;;;38.95;19.70;;;;;;;;;;5001587;28;20125;-67
2023/12/18 13:29:53;;;;;;;37.95;20.83;;;;;;;;;;5003872;28;20485;-68
2023/12/18 13:32:24;;;;;;;35.83;19.80;;;;;;;;;;4993550;28;20057;-67
2023/12/18 13:34:50;;;;;;;37.33;19.50;;;;;;;;;;4998843;28;20046;-66
2023/12/18 13:37:16;;;;;;;28.67;17.73;;;;;;;;;;5002440;28;20137;-67
2023/12/18 13:39:42;;;;;;;37.28;20.20;;;;;;;;;;5001732;28;20122;-67
2023/12/18 13:42:10;;;;;;;36.05;19.38;;;;;;;;;;4998861;28;20131;-65
2023/12/18 13:44:36;;;;;;;34.25;19.70;;;;;;;;;;5003135;28;20125;-65
2023/12/18 13:47:03;;;;;;;29.00;17.98;;;;;;;;;;5000185;28;20052;-66
2023/12/18 13:49:29;;;;;;;37.58;18.85;;;;;;;;;;5003795;28;20084;-67
2023/12/18 13:51:55;;;;;;;38.90;19.50;;;;;;;;;;5002998;28;20038;-67
2023/12/18 13:54:21;;;;;;;39.08;18.75;;;;;;;;;;5006577;28;20353;-65
2023/12/18 13:56:47;;;;;;;33.30;18.63;;;;;;;;;;4996319;28;20438;-67
2023/12/18 13:59:13;;;;;;;37.20;18.88;;;;;;;;;;5003586;28;20584;-67
2023/12/18 14:01:40;;;;;;;39.75;19.05;;;;;;;;;;5010810;28;20050;-66
2023/12/18 14:04:06;;;;;;;28.95;17.67;;;;;;;;;;5008002;28;20053;-67
2023/12/18 14:06:32;;;;;;;35.25;18.60;;;;;;;;;;5002261;28;20100;-64
2023/12/18 14:08:59;;;;;;;34.40;16.90;;;;;;;;;;4996014;28;20108;-65
2023/12/18 14:11:26;;;;;;;32.47;17.33;;;;;;;;;;5000195;28;20049;-67
2023/12/18 14:13:53;;;;;;;31.85;17.50;;;;;;;;;;4997815;28;20096;-67
2023/12/18 14:16:19;;;;;;;34.08;17.85;;;;;;;;;;5000640;28;20517;-66
2023/12/18 14:18:49;;;;;;;32.95;17.70;;;;;;;;;;4998702;28;20078;-66
2023/12/18 14:21:16;;;;;;;36.75;18.23;;;;;;;;;;4992734;28;20121;-66